sensor_id;sensor_type;location;lat;lon;timestamp;P1;durP1;ratioP1;P2;durP2;ratioP2
64609;SDS011;51019;46.090;6.350;2022-09-23T00:00:38;193.55;;;184.15;;
64609;SDS011;51019;46.090;6.350;2022-09-23T00:03:06;178.50;;;169.52;;
64609;SDS011;51019;46.090;6.350;2022-09-23T00:05:33;176.45;;;167.63;;
64609;SDS011;51019;46.090;6.350;2022-09-23T00:08:00;184.57;;;175.35;;
64609;SDS011;51019;46.090;6.350;2022-09-23T00:10:28;190.00;;;180.50;;
64609;SDS011;51019;46.090;6.350;2022-09-23T00:12:56;178.23;;;168.98;;
64609;SDS011;51019;46.090;6.350;2022-09-23T00:15:25;162.25;;;154.23;;
64609;SDS011;51019;46.090;6.350;2022-09-23T00:17:55;166.27;;;157.95;;
64609;SDS011;51019;46.090;6.350;2022-09-23T00:20:22;175.10;;;166.00;;
64609;SDS011;51019;46.090;6.350;2022-09-23T00:22:49;170.02;;;161.57;;
64609;SDS011;51019;46.090;6.350;2022-09-23T00:25:17;171.18;;;162.85;;
64609;SDS011;51019;46.090;6.350;2022-09-23T00:27:44;172.55;;;163.75;;
64609;SDS011;51019;46.090;6.350;2022-09-23T00:30:11;171.32;;;162.30;;
64609;SDS011;51019;46.090;6.350;2022-09-23T00:32:40;171.57;;;162.80;;
64609;SDS011;51019;46.090;6.350;2022-09-23T00:35:08;185.15;;;175.80;;
64609;SDS011;51019;46.090;6.350;2022-09-23T00:37:35;172.70;;;164.13;;
64609;SDS011;51019;46.090;6.350;2022-09-23T00:40:03;208.65;;;198.10;;
64609;SDS011;51019;46.090;6.350;2022-09-23T00:42:30;205.40;;;194.65;;
64609;SDS011;51019;46.090;6.350;2022-09-23T00:44:58;213.35;;;202.43;;
64609;SDS011;51019;46.090;6.350;2022-09-23T00:47:28;194.40;;;184.35;;
64609;SDS011;51019;46.090;6.350;2022-09-23T00:50:01;180.13;;;171.15;;
64609;SDS011;51019;46.090;6.350;2022-09-23T00:52:31;181.80;;;173.18;;
64609;SDS011;51019;46.090;6.350;2022-09-23T00:54:59;181.07;;;172.10;;
64609;SDS011;51019;46.090;6.350;2022-09-23T00:57:30;198.55;;;188.23;;
64609;SDS011;51019;46.090;6.350;2022-09-23T00:59:59;193.93;;;184.02;;
64609;SDS011;51019;46.090;6.350;2022-09-23T01:02:27;198.70;;;189.10;;
64609;SDS011;51019;46.090;6.350;2022-09-23T01:04:54;184.60;;;175.45;;
64609;SDS011;51019;46.090;6.350;2022-09-23T01:07:22;184.38;;;173.43;;
64609;SDS011;51019;46.090;6.350;2022-09-23T01:09:49;182.35;;;173.10;;
64609;SDS011;51019;46.090;6.350;2022-09-23T01:12:20;197.00;;;187.02;;
64609;SDS011;51019;46.090;6.350;2022-09-23T01:15:01;185.38;;;175.73;;
64609;SDS011;51019;46.090;6.350;2022-09-23T01:17:39;173.40;;;164.88;;
64609;SDS011;51019;46.090;6.350;2022-09-23T01:20:21;155.48;;;147.82;;
64609;SDS011;51019;46.090;6.350;2022-09-23T01:23:07;176.40;;;167.57;;
64609;SDS011;51019;46.090;6.350;2022-09-23T01:25:56;162.93;;;154.48;;
64609;SDS011;51019;46.090;6.350;2022-09-23T01:28:42;154.10;;;146.45;;
64609;SDS011;51019;46.090;6.350;2022-09-23T01:31:28;157.10;;;149.50;;
64609;SDS011;51019;46.090;6.350;2022-09-23T01:34:02;173.20;;;164.43;;
64609;SDS011;51019;46.090;6.350;2022-09-23T01:36:38;171.05;;;162.63;;
64609;SDS011;51019;46.090;6.350;2022-09-23T01:39:09;167.90;;;159.77;;
64609;SDS011;51019;46.090;6.350;2022-09-23T01:41:44;174.93;;;166.23;;
64609;SDS011;51019;46.090;6.350;2022-09-23T01:44:21;192.68;;;183.18;;
64609;SDS011;51019;46.090;6.350;2022-09-23T01:46:55;189.15;;;179.98;;
64609;SDS011;51019;46.090;6.350;2022-09-23T01:51:56;166.07;;;157.85;;
64609;SDS011;51019;46.090;6.350;2022-09-23T01:54:33;170.63;;;162.38;;
64609;SDS011;51019;46.090;6.350;2022-09-23T01:57:04;170.23;;;161.98;;
64609;SDS011;51019;46.090;6.350;2022-09-23T01:59:36;163.07;;;155.10;;
64609;SDS011;51019;46.090;6.350;2022-09-23T02:02:07;172.35;;;163.43;;
64609;SDS011;51019;46.090;6.350;2022-09-23T02:04:42;173.65;;;165.20;;
64609;SDS011;51019;46.090;6.350;2022-09-23T02:07:16;181.38;;;172.48;;
64609;SDS011;51019;46.090;6.350;2022-09-23T02:09:53;185.85;;;176.50;;
64609;SDS011;51019;46.090;6.350;2022-09-23T02:12:24;175.15;;;166.50;;
64609;SDS011;51019;46.090;6.350;2022-09-23T02:14:56;169.95;;;161.52;;
64609;SDS011;51019;46.090;6.350;2022-09-23T02:17:30;158.45;;;150.55;;
64609;SDS011;51019;46.090;6.350;2022-09-23T02:20:04;158.85;;;151.07;;
64609;SDS011;51019;46.090;6.350;2022-09-23T02:22:34;149.35;;;141.88;;
64609;SDS011;51019;46.090;6.350;2022-09-23T02:25:06;161.85;;;153.60;;
64609;SDS011;51019;46.090;6.350;2022-09-23T02:27:38;162.20;;;154.35;;
64609;SDS011;51019;46.090;6.350;2022-09-23T02:30:11;186.10;;;176.13;;
64609;SDS011;51019;46.090;6.350;2022-09-23T02:32:45;176.30;;;167.35;;
64609;SDS011;51019;46.090;6.350;2022-09-23T02:35:19;174.43;;;165.43;;
64609;SDS011;51019;46.090;6.350;2022-09-23T02:37:56;166.48;;;157.95;;
64609;SDS011;51019;46.090;6.350;2022-09-23T02:40:34;171.60;;;163.23;;
64609;SDS011;51019;46.090;6.350;2022-09-23T02:43:05;193.48;;;183.85;;
64609;SDS011;51019;46.090;6.350;2022-09-23T02:45:37;177.30;;;168.40;;
64609;SDS011;51019;46.090;6.350;2022-09-23T02:48:06;173.30;;;164.68;;
64609;SDS011;51019;46.090;6.350;2022-09-23T02:50:39;161.95;;;154.10;;
64609;SDS011;51019;46.090;6.350;2022-09-23T02:53:06;163.90;;;155.60;;
64609;SDS011;51019;46.090;6.350;2022-09-23T02:55:33;153.80;;;145.93;;
64609;SDS011;51019;46.090;6.350;2022-09-23T02:58:00;159.57;;;151.57;;
64609;SDS011;51019;46.090;6.350;2022-09-23T03:00:32;162.68;;;154.48;;
64609;SDS011;51019;46.090;6.350;2022-09-23T03:03:17;155.38;;;147.82;;
64609;SDS011;51019;46.090;6.350;2022-09-23T03:05:56;152.70;;;145.07;;
64609;SDS011;51019;46.090;6.350;2022-09-23T03:08:29;153.27;;;144.98;;
64609;SDS011;51019;46.090;6.350;2022-09-23T03:11:04;156.75;;;149.27;;
64609;SDS011;51019;46.090;6.350;2022-09-23T03:13:35;157.48;;;149.85;;
64609;SDS011;51019;46.090;6.350;2022-09-23T03:16:15;152.68;;;145.15;;
64609;SDS011;51019;46.090;6.350;2022-09-23T03:18:54;195.75;;;186.18;;
64609;SDS011;51019;46.090;6.350;2022-09-23T03:21:28;187.23;;;178.02;;
64609;SDS011;51019;46.090;6.350;2022-09-23T03:24:01;193.10;;;183.57;;
64609;SDS011;51019;46.090;6.350;2022-09-23T03:26:32;193.20;;;183.45;;
64609;SDS011;51019;46.090;6.350;2022-09-23T03:29:02;201.52;;;191.65;;
64609;SDS011;51019;46.090;6.350;2022-09-23T03:31:31;179.43;;;170.65;;
64609;SDS011;51019;46.090;6.350;2022-09-23T03:34:01;192.30;;;182.70;;
64609;SDS011;51019;46.090;6.350;2022-09-23T03:36:34;169.65;;;161.30;;
64609;SDS011;51019;46.090;6.350;2022-09-23T03:39:18;177.10;;;168.23;;
64609;SDS011;51019;46.090;6.350;2022-09-23T03:41:54;169.07;;;160.63;;
64609;SDS011;51019;46.090;6.350;2022-09-23T03:44:24;171.48;;;163.07;;
64609;SDS011;51019;46.090;6.350;2022-09-23T03:46:53;164.05;;;156.07;;
64609;SDS011;51019;46.090;6.350;2022-09-23T03:49:26;165.15;;;157.00;;
64609;SDS011;51019;46.090;6.350;2022-09-23T03:51:57;163.95;;;155.43;;
64609;SDS011;51019;46.090;6.350;2022-09-23T03:54:24;157.43;;;149.90;;
64609;SDS011;51019;46.090;6.350;2022-09-23T03:56:54;153.93;;;146.30;;
64609;SDS011;51019;46.090;6.350;2022-09-23T03:59:22;175.75;;;167.07;;
64609;SDS011;51019;46.090;6.350;2022-09-23T04:01:50;159.95;;;151.93;;
64609;SDS011;51019;46.090;6.350;2022-09-23T04:04:17;146.50;;;139.40;;
64609;SDS011;51019;46.090;6.350;2022-09-23T04:06:46;162.25;;;154.27;;
64609;SDS011;51019;46.090;6.350;2022-09-23T04:09:14;170.38;;;162.15;;
64609;SDS011;51019;46.090;6.350;2022-09-23T04:11:41;166.32;;;157.52;;
64609;SDS011;51019;46.090;6.350;2022-09-23T04:14:08;186.55;;;177.35;;
64609;SDS011;51019;46.090;6.350;2022-09-23T04:16:36;165.30;;;156.95;;
64609;SDS011;51019;46.090;6.350;2022-09-23T04:19:03;169.50;;;161.30;;
64609;SDS011;51019;46.090;6.350;2022-09-23T04:21:30;164.18;;;155.75;;
64609;SDS011;51019;46.090;6.350;2022-09-23T04:23:58;160.73;;;152.85;;
64609;SDS011;51019;46.090;6.350;2022-09-23T04:26:26;166.15;;;158.00;;
64609;SDS011;51019;46.090;6.350;2022-09-23T04:28:53;193.43;;;183.60;;
64609;SDS011;51019;46.090;6.350;2022-09-23T04:31:20;217.50;;;206.40;;
64609;SDS011;51019;46.090;6.350;2022-09-23T04:33:47;201.77;;;192.02;;
64609;SDS011;51019;46.090;6.350;2022-09-23T04:36:14;226.95;;;215.35;;
64609;SDS011;51019;46.090;6.350;2022-09-23T04:38:42;207.40;;;196.88;;
64609;SDS011;51019;46.090;6.350;2022-09-23T04:41:11;187.23;;;178.18;;
64609;SDS011;51019;46.090;6.350;2022-09-23T04:43:38;176.70;;;168.00;;
64609;SDS011;51019;46.090;6.350;2022-09-23T04:46:07;172.43;;;163.60;;
64609;SDS011;51019;46.090;6.350;2022-09-23T04:48:35;169.88;;;161.48;;
64609;SDS011;51019;46.090;6.350;2022-09-23T04:51:03;168.23;;;159.93;;
64609;SDS011;51019;46.090;6.350;2022-09-23T04:53:31;163.10;;;154.95;;
64609;SDS011;51019;46.090;6.350;2022-09-23T04:56:00;164.95;;;156.70;;
64609;SDS011;51019;46.090;6.350;2022-09-23T04:58:29;157.05;;;149.55;;
64609;SDS011;51019;46.090;6.350;2022-09-23T05:00:56;162.82;;;154.73;;
64609;SDS011;51019;46.090;6.350;2022-09-23T05:03:23;175.63;;;166.90;;
64609;SDS011;51019;46.090;6.350;2022-09-23T05:05:50;159.10;;;151.05;;
64609;SDS011;51019;46.090;6.350;2022-09-23T05:08:19;161.27;;;152.88;;
64609;SDS011;51019;46.090;6.350;2022-09-23T05:10:46;155.57;;;148.10;;
64609;SDS011;51019;46.090;6.350;2022-09-23T05:13:13;176.38;;;166.77;;
64609;SDS011;51019;46.090;6.350;2022-09-23T05:15:42;168.18;;;159.93;;
64609;SDS011;51019;46.090;6.350;2022-09-23T05:18:09;172.30;;;163.77;;
64609;SDS011;51019;46.090;6.350;2022-09-23T05:20:36;170.35;;;161.70;;
64609;SDS011;51019;46.090;6.350;2022-09-23T05:23:03;177.05;;;168.23;;
64609;SDS011;51019;46.090;6.350;2022-09-23T05:25:30;197.90;;;188.07;;
64609;SDS011;51019;46.090;6.350;2022-09-23T05:27:57;189.23;;;179.68;;
64609;SDS011;51019;46.090;6.350;2022-09-23T05:30:24;151.30;;;144.07;;
64609;SDS011;51019;46.090;6.350;2022-09-23T05:32:52;154.27;;;146.85;;
64609;SDS011;51019;46.090;6.350;2022-09-23T05:35:19;137.82;;;130.95;;
64609;SDS011;51019;46.090;6.350;2022-09-23T05:37:46;156.60;;;148.80;;
64609;SDS011;51019;46.090;6.350;2022-09-23T05:40:13;151.38;;;143.90;;
64609;SDS011;51019;46.090;6.350;2022-09-23T05:42:40;146.70;;;139.65;;
64609;SDS011;51019;46.090;6.350;2022-09-23T05:45:08;141.77;;;134.68;;
64609;SDS011;51019;46.090;6.350;2022-09-23T05:47:35;140.57;;;133.27;;
64609;SDS011;51019;46.090;6.350;2022-09-23T05:50:04;151.80;;;144.35;;
64609;SDS011;51019;46.090;6.350;2022-09-23T05:52:31;143.52;;;136.27;;
64609;SDS011;51019;46.090;6.350;2022-09-23T05:54:59;169.45;;;160.75;;
64609;SDS011;51019;46.090;6.350;2022-09-23T05:57:26;161.98;;;153.70;;
64609;SDS011;51019;46.090;6.350;2022-09-23T05:59:53;144.82;;;137.30;;
64609;SDS011;51019;46.090;6.350;2022-09-23T06:02:20;170.85;;;162.43;;
64609;SDS011;51019;46.090;6.350;2022-09-23T06:04:47;165.25;;;157.02;;
64609;SDS011;51019;46.090;6.350;2022-09-23T06:07:16;183.90;;;174.45;;
64609;SDS011;51019;46.090;6.350;2022-09-23T06:09:43;178.20;;;169.07;;
64609;SDS011;51019;46.090;6.350;2022-09-23T06:12:10;175.52;;;166.60;;
64609;SDS011;51019;46.090;6.350;2022-09-23T06:14:38;168.00;;;159.68;;
64609;SDS011;51019;46.090;6.350;2022-09-23T06:17:05;186.45;;;176.70;;
64609;SDS011;51019;46.090;6.350;2022-09-23T06:19:32;172.55;;;163.65;;
64609;SDS011;51019;46.090;6.350;2022-09-23T06:21:59;182.27;;;172.65;;
64609;SDS011;51019;46.090;6.350;2022-09-23T06:24:27;179.30;;;170.38;;
64609;SDS011;51019;46.090;6.350;2022-09-23T06:26:54;170.57;;;161.15;;
64609;SDS011;51019;46.090;6.350;2022-09-23T06:29:21;166.50;;;157.82;;
64609;SDS011;51019;46.090;6.350;2022-09-23T06:31:48;183.02;;;173.18;;
64609;SDS011;51019;46.090;6.350;2022-09-23T06:34:15;185.15;;;175.80;;
64609;SDS011;51019;46.090;6.350;2022-09-23T06:36:43;176.98;;;167.57;;
64609;SDS011;51019;46.090;6.350;2022-09-23T06:39:10;194.38;;;184.15;;
64609;SDS011;51019;46.090;6.350;2022-09-23T06:41:38;188.30;;;178.15;;
64609;SDS011;51019;46.090;6.350;2022-09-23T06:44:05;172.85;;;163.57;;
64609;SDS011;51019;46.090;6.350;2022-09-23T06:46:32;184.82;;;174.60;;
64609;SDS011;51019;46.090;6.350;2022-09-23T06:49:00;188.00;;;177.70;;
64609;SDS011;51019;46.090;6.350;2022-09-23T06:51:28;187.32;;;176.57;;
64609;SDS011;51019;46.090;6.350;2022-09-23T06:53:55;191.05;;;180.15;;
64609;SDS011;51019;46.090;6.350;2022-09-23T06:56:22;184.25;;;173.60;;
64609;SDS011;51019;46.090;6.350;2022-09-23T06:58:53;161.38;;;152.60;;
64609;SDS011;51019;46.090;6.350;2022-09-23T07:01:21;143.45;;;135.45;;
64609;SDS011;51019;46.090;6.350;2022-09-23T07:03:48;141.95;;;134.40;;
64609;SDS011;51019;46.090;6.350;2022-09-23T07:06:16;141.00;;;133.55;;
64609;SDS011;51019;46.090;6.350;2022-09-23T07:08:44;123.20;;;116.35;;
64609;SDS011;51019;46.090;6.350;2022-09-23T07:11:12;125.10;;;118.45;;
64609;SDS011;51019;46.090;6.350;2022-09-23T07:13:43;116.22;;;110.10;;
64609;SDS011;51019;46.090;6.350;2022-09-23T07:16:11;123.03;;;116.38;;
64609;SDS011;51019;46.090;6.350;2022-09-23T07:18:39;128.80;;;121.75;;
64609;SDS011;51019;46.090;6.350;2022-09-23T07:21:07;60.72;;;56.80;;
64609;SDS011;51019;46.090;6.350;2022-09-23T07:23:37;69.07;;;64.78;;
64609;SDS011;51019;46.090;6.350;2022-09-23T07:26:04;67.63;;;63.55;;
64609;SDS011;51019;46.090;6.350;2022-09-23T07:28:33;55.25;;;51.38;;
64609;SDS011;51019;46.090;6.350;2022-09-23T07:31:02;69.75;;;65.50;;
64609;SDS011;51019;46.090;6.350;2022-09-23T07:33:32;60.55;;;56.70;;
64609;SDS011;51019;46.090;6.350;2022-09-23T07:36:03;58.88;;;55.20;;
64609;SDS011;51019;46.090;6.350;2022-09-23T07:38:31;66.00;;;62.00;;
64609;SDS011;51019;46.090;6.350;2022-09-23T07:41:01;74.15;;;69.22;;
64609;SDS011;51019;46.090;6.350;2022-09-23T07:43:30;69.28;;;65.20;;
64609;SDS011;51019;46.090;6.350;2022-09-23T07:45:58;59.55;;;55.80;;
64609;SDS011;51019;46.090;6.350;2022-09-23T07:48:27;77.88;;;73.38;;
64609;SDS011;51019;46.090;6.350;2022-09-23T07:50:56;67.88;;;63.65;;
64609;SDS011;51019;46.090;6.350;2022-09-23T07:53:24;47.30;;;44.22;;
64609;SDS011;51019;46.090;6.350;2022-09-23T07:55:52;58.25;;;54.85;;
64609;SDS011;51019;46.090;6.350;2022-09-23T07:58:20;58.28;;;54.58;;
64609;SDS011;51019;46.090;6.350;2022-09-23T08:00:49;56.78;;;53.15;;
64609;SDS011;51019;46.090;6.350;2022-09-23T08:03:18;48.35;;;45.15;;
64609;SDS011;51019;46.090;6.350;2022-09-23T08:05:45;55.13;;;51.47;;
64609;SDS011;51019;46.090;6.350;2022-09-23T08:08:14;44.28;;;41.33;;
64609;SDS011;51019;46.090;6.350;2022-09-23T08:10:41;64.22;;;60.05;;
64609;SDS011;51019;46.090;6.350;2022-09-23T08:13:10;64.93;;;60.95;;
64609;SDS011;51019;46.090;6.350;2022-09-23T08:15:37;63.92;;;59.67;;
64609;SDS011;51019;46.090;6.350;2022-09-23T08:18:04;48.47;;;45.05;;
64609;SDS011;51019;46.090;6.350;2022-09-23T08:20:31;50.58;;;47.05;;
64609;SDS011;51019;46.090;6.350;2022-09-23T08:23:11;37.97;;;35.47;;
64609;SDS011;51019;46.090;6.350;2022-09-23T08:25:40;37.90;;;35.22;;
64609;SDS011;51019;46.090;6.350;2022-09-23T08:28:09;32.03;;;29.35;;
64609;SDS011;51019;46.090;6.350;2022-09-23T08:30:40;40.72;;;37.92;;
64609;SDS011;51019;46.090;6.350;2022-09-23T08:33:08;46.53;;;43.45;;
64609;SDS011;51019;46.090;6.350;2022-09-23T08:35:35;32.88;;;30.58;;
64609;SDS011;51019;46.090;6.350;2022-09-23T08:38:02;38.15;;;35.15;;
64609;SDS011;51019;46.090;6.350;2022-09-23T08:40:30;24.83;;;22.77;;
64609;SDS011;51019;46.090;6.350;2022-09-23T08:43:00;28.90;;;26.70;;
64609;SDS011;51019;46.090;6.350;2022-09-23T08:45:31;32.85;;;30.30;;
64609;SDS011;51019;46.090;6.350;2022-09-23T08:48:02;32.35;;;30.02;;
64609;SDS011;51019;46.090;6.350;2022-09-23T08:50:35;20.30;;;18.52;;
64609;SDS011;51019;46.090;6.350;2022-09-23T08:53:10;32.65;;;30.33;;
64609;SDS011;51019;46.090;6.350;2022-09-23T08:55:45;29.02;;;26.65;;
64609;SDS011;51019;46.090;6.350;2022-09-23T08:58:23;30.00;;;27.60;;
64609;SDS011;51019;46.090;6.350;2022-09-23T09:01:04;29.65;;;27.40;;
64609;SDS011;51019;46.090;6.350;2022-09-23T09:03:39;36.25;;;33.65;;
64609;SDS011;51019;46.090;6.350;2022-09-23T09:08:42;30.83;;;28.50;;
64609;SDS011;51019;46.090;6.350;2022-09-23T09:11:12;42.15;;;39.25;;
64609;SDS011;51019;46.090;6.350;2022-09-23T09:13:44;41.70;;;38.90;;
64609;SDS011;51019;46.090;6.350;2022-09-23T09:16:23;27.45;;;25.40;;
64609;SDS011;51019;46.090;6.350;2022-09-23T09:19:06;38.38;;;35.72;;
64609;SDS011;51019;46.090;6.350;2022-09-23T09:21:42;48.08;;;45.05;;
64609;SDS011;51019;46.090;6.350;2022-09-23T09:24:15;34.42;;;32.03;;
64609;SDS011;51019;46.090;6.350;2022-09-23T09:26:44;50.25;;;46.92;;
64609;SDS011;51019;46.090;6.350;2022-09-23T09:29:13;42.45;;;39.70;;
64609;SDS011;51019;46.090;6.350;2022-09-23T09:31:42;39.83;;;37.15;;
64609;SDS011;51019;46.090;6.350;2022-09-23T09:34:11;36.50;;;34.03;;
64609;SDS011;51019;46.090;6.350;2022-09-23T09:36:48;47.47;;;44.28;;
64609;SDS011;51019;46.090;6.350;2022-09-23T09:39:25;72.05;;;67.97;;
64609;SDS011;51019;46.090;6.350;2022-09-23T09:41:53;79.03;;;74.47;;
64609;SDS011;51019;46.090;6.350;2022-09-23T09:44:24;63.70;;;59.88;;
64609;SDS011;51019;46.090;6.350;2022-09-23T09:47:03;71.28;;;67.15;;
64609;SDS011;51019;46.090;6.350;2022-09-23T09:49:44;72.55;;;68.60;;
64609;SDS011;51019;46.090;6.350;2022-09-23T09:52:19;64.50;;;60.60;;
64609;SDS011;51019;46.090;6.350;2022-09-23T09:54:50;89.75;;;84.90;;
64609;SDS011;51019;46.090;6.350;2022-09-23T09:57:21;88.43;;;83.55;;
64609;SDS011;51019;46.090;6.350;2022-09-23T09:59:56;72.20;;;68.28;;
64609;SDS011;51019;46.090;6.350;2022-09-23T10:02:25;84.65;;;79.13;;
64609;SDS011;51019;46.090;6.350;2022-09-23T10:04:56;60.33;;;56.95;;
64609;SDS011;51019;46.090;6.350;2022-09-23T10:07:26;54.00;;;50.67;;
64609;SDS011;51019;46.090;6.350;2022-09-23T10:09:54;73.32;;;69.25;;
64609;SDS011;51019;46.090;6.350;2022-09-23T10:12:25;69.28;;;65.35;;
64609;SDS011;51019;46.090;6.350;2022-09-23T10:14:55;61.78;;;58.08;;
64609;SDS011;51019;46.090;6.350;2022-09-23T10:17:23;72.63;;;68.75;;
64609;SDS011;51019;46.090;6.350;2022-09-23T10:19:57;76.00;;;71.78;;
64609;SDS011;51019;46.090;6.350;2022-09-23T10:22:27;77.93;;;73.55;;
64609;SDS011;51019;46.090;6.350;2022-09-23T10:24:59;85.47;;;80.90;;
64609;SDS011;51019;46.090;6.350;2022-09-23T10:27:32;77.03;;;72.80;;
64609;SDS011;51019;46.090;6.350;2022-09-23T10:30:04;67.68;;;63.95;;
64609;SDS011;51019;46.090;6.350;2022-09-23T10:32:45;70.43;;;66.60;;
64609;SDS011;51019;46.090;6.350;2022-09-23T10:35:13;72.05;;;68.10;;
64609;SDS011;51019;46.090;6.350;2022-09-23T10:37:42;72.55;;;68.43;;
64609;SDS011;51019;46.090;6.350;2022-09-23T10:40:14;85.60;;;80.97;;
64609;SDS011;51019;46.090;6.350;2022-09-23T10:43:11;73.38;;;69.30;;
64609;SDS011;51019;46.090;6.350;2022-09-23T10:46:04;70.93;;;66.90;;
64609;SDS011;51019;46.090;6.350;2022-09-23T10:48:54;72.63;;;68.35;;
64609;SDS011;51019;46.090;6.350;2022-09-23T10:51:59;58.47;;;54.97;;
64609;SDS011;51019;46.090;6.350;2022-09-23T10:54:42;70.57;;;66.07;;
64609;SDS011;51019;46.090;6.350;2022-09-23T10:57:23;77.88;;;73.72;;
64609;SDS011;51019;46.090;6.350;2022-09-23T11:00:08;72.15;;;68.22;;
64609;SDS011;51019;46.090;6.350;2022-09-23T11:02:50;71.50;;;67.50;;
64609;SDS011;51019;46.090;6.350;2022-09-23T11:05:42;88.07;;;83.38;;
64609;SDS011;51019;46.090;6.350;2022-09-23T11:08:28;148.32;;;140.73;;
64609;SDS011;51019;46.090;6.350;2022-09-23T11:11:14;59.20;;;55.70;;
64609;SDS011;51019;46.090;6.350;2022-09-23T11:13:59;64.07;;;60.45;;
64609;SDS011;51019;46.090;6.350;2022-09-23T11:16:44;83.07;;;78.55;;
64609;SDS011;51019;46.090;6.350;2022-09-23T11:19:31;67.55;;;63.85;;
64609;SDS011;51019;46.090;6.350;2022-09-23T11:22:15;72.55;;;68.50;;
64609;SDS011;51019;46.090;6.350;2022-09-23T11:25:07;74.32;;;70.32;;
64609;SDS011;51019;46.090;6.350;2022-09-23T11:27:59;83.50;;;78.60;;
64609;SDS011;51019;46.090;6.350;2022-09-23T11:30:48;74.32;;;70.30;;
64609;SDS011;51019;46.090;6.350;2022-09-23T11:33:29;63.45;;;59.80;;
64609;SDS011;51019;46.090;6.350;2022-09-23T11:36:14;68.82;;;65.18;;
64609;SDS011;51019;46.090;6.350;2022-09-23T11:38:48;81.63;;;77.38;;
64609;SDS011;51019;46.090;6.350;2022-09-23T11:41:18;73.40;;;69.55;;
64609;SDS011;51019;46.090;6.350;2022-09-23T11:43:50;56.40;;;53.22;;
64609;SDS011;51019;46.090;6.350;2022-09-23T11:46:26;64.65;;;61.00;;
64609;SDS011;51019;46.090;6.350;2022-09-23T11:49:01;66.63;;;62.85;;
64609;SDS011;51019;46.090;6.350;2022-09-23T11:51:37;67.93;;;64.25;;
64609;SDS011;51019;46.090;6.350;2022-09-23T11:54:11;84.93;;;80.60;;
64609;SDS011;51019;46.090;6.350;2022-09-23T11:56:45;67.68;;;63.90;;
64609;SDS011;51019;46.090;6.350;2022-09-23T11:59:18;62.53;;;59.10;;
64609;SDS011;51019;46.090;6.350;2022-09-23T12:01:55;71.50;;;67.63;;
64609;SDS011;51019;46.090;6.350;2022-09-23T12:04:27;61.95;;;58.35;;
64609;SDS011;51019;46.090;6.350;2022-09-23T12:06:59;79.05;;;75.05;;
64609;SDS011;51019;46.090;6.350;2022-09-23T12:09:31;87.60;;;83.13;;
64609;SDS011;51019;46.090;6.350;2022-09-23T12:12:03;48.50;;;45.70;;
64609;SDS011;51019;46.090;6.350;2022-09-23T12:14:51;72.40;;;68.32;;
64609;SDS011;51019;46.090;6.350;2022-09-23T12:17:26;57.95;;;54.72;;
64609;SDS011;51019;46.090;6.350;2022-09-23T12:20:37;43.83;;;41.08;;
64609;SDS011;51019;46.090;6.350;2022-09-23T12:23:16;46.38;;;43.65;;
64609;SDS011;51019;46.090;6.350;2022-09-23T12:26:04;46.97;;;44.25;;
64609;SDS011;51019;46.090;6.350;2022-09-23T12:28:39;40.97;;;38.35;;
64609;SDS011;51019;46.090;6.350;2022-09-23T12:31:09;53.80;;;50.78;;
64609;SDS011;51019;46.090;6.350;2022-09-23T12:33:39;59.50;;;56.15;;
64609;SDS011;51019;46.090;6.350;2022-09-23T12:36:14;53.53;;;50.53;;
64609;SDS011;51019;46.090;6.350;2022-09-23T12:38:45;50.20;;;47.33;;
64609;SDS011;51019;46.090;6.350;2022-09-23T12:41:19;54.35;;;51.15;;
64609;SDS011;51019;46.090;6.350;2022-09-23T12:43:53;40.90;;;38.45;;
64609;SDS011;51019;46.090;6.350;2022-09-23T12:46:23;61.28;;;58.00;;
64609;SDS011;51019;46.090;6.350;2022-09-23T12:48:57;123.13;;;115.20;;
64609;SDS011;51019;46.090;6.350;2022-09-23T12:51:26;57.92;;;54.72;;
64609;SDS011;51019;46.090;6.350;2022-09-23T12:54:13;67.00;;;63.30;;
64609;SDS011;51019;46.090;6.350;2022-09-23T12:57:00;68.18;;;64.57;;
64609;SDS011;51019;46.090;6.350;2022-09-23T12:59:29;45.95;;;43.28;;
64609;SDS011;51019;46.090;6.350;2022-09-23T13:02:09;74.20;;;70.22;;
64609;SDS011;51019;46.090;6.350;2022-09-23T13:04:53;69.88;;;65.85;;
64609;SDS011;51019;46.090;6.350;2022-09-23T13:07:41;24.60;;;22.80;;
64609;SDS011;51019;46.090;6.350;2022-09-23T13:10:14;21.92;;;20.13;;
64609;SDS011;51019;46.090;6.350;2022-09-23T13:12:48;24.95;;;23.05;;
64609;SDS011;51019;46.090;6.350;2022-09-23T13:15:20;25.02;;;23.23;;
64609;SDS011;51019;46.090;6.350;2022-09-23T13:21:14;20.70;;;19.00;;
64609;SDS011;51019;46.090;6.350;2022-09-23T13:26:45;26.23;;;24.27;;
64609;SDS011;51019;46.090;6.350;2022-09-23T13:29:16;33.92;;;31.52;;
64609;SDS011;51019;46.090;6.350;2022-09-23T13:31:47;40.03;;;37.58;;
64609;SDS011;51019;46.090;6.350;2022-09-23T13:34:14;39.30;;;36.85;;
64609;SDS011;51019;46.090;6.350;2022-09-23T13:36:46;50.90;;;47.83;;
64609;SDS011;51019;46.090;6.350;2022-09-23T13:39:14;47.67;;;44.88;;
64609;SDS011;51019;46.090;6.350;2022-09-23T13:41:42;43.20;;;40.47;;
64609;SDS011;51019;46.090;6.350;2022-09-23T13:44:13;40.72;;;38.17;;
64609;SDS011;51019;46.090;6.350;2022-09-23T13:46:45;53.00;;;50.00;;
64609;SDS011;51019;46.090;6.350;2022-09-23T13:49:20;44.17;;;41.65;;
64609;SDS011;51019;46.090;6.350;2022-09-23T13:51:49;35.90;;;33.53;;
64609;SDS011;51019;46.090;6.350;2022-09-23T13:54:27;34.67;;;32.35;;
64609;SDS011;51019;46.090;6.350;2022-09-23T13:56:58;43.13;;;40.42;;
64609;SDS011;51019;46.090;6.350;2022-09-23T13:59:26;37.40;;;34.95;;
64609;SDS011;51019;46.090;6.350;2022-09-23T14:02:01;44.90;;;42.15;;
64609;SDS011;51019;46.090;6.350;2022-09-23T14:04:32;43.85;;;41.05;;
64609;SDS011;51019;46.090;6.350;2022-09-23T14:06:59;50.63;;;47.72;;
64609;SDS011;51019;46.090;6.350;2022-09-23T14:09:28;39.22;;;36.58;;
64609;SDS011;51019;46.090;6.350;2022-09-23T14:11:59;41.22;;;38.65;;
64609;SDS011;51019;46.090;6.350;2022-09-23T14:14:27;35.08;;;32.72;;
64609;SDS011;51019;46.090;6.350;2022-09-23T14:16:55;39.17;;;36.65;;
64609;SDS011;51019;46.090;6.350;2022-09-23T14:19:24;40.35;;;37.95;;
64609;SDS011;51019;46.090;6.350;2022-09-23T14:21:54;20.05;;;18.38;;
64609;SDS011;51019;46.090;6.350;2022-09-23T14:24:23;27.08;;;25.00;;
64609;SDS011;51019;46.090;6.350;2022-09-23T14:26:59;44.53;;;42.13;;
64609;SDS011;51019;46.090;6.350;2022-09-23T14:29:38;43.72;;;41.15;;
64609;SDS011;51019;46.090;6.350;2022-09-23T14:32:09;45.80;;;43.00;;
64609;SDS011;51019;46.090;6.350;2022-09-23T14:34:42;17.35;;;15.63;;
64609;SDS011;51019;46.090;6.350;2022-09-23T14:40:15;20.83;;;19.10;;
64609;SDS011;51019;46.090;6.350;2022-09-23T14:42:46;26.13;;;24.23;;
64609;SDS011;51019;46.090;6.350;2022-09-23T14:45:17;27.88;;;25.90;;
64609;SDS011;51019;46.090;6.350;2022-09-23T14:47:46;23.70;;;21.90;;
64609;SDS011;51019;46.090;6.350;2022-09-23T14:50:19;25.45;;;23.65;;